Flight Track Log - Related Links

Times and Time Zones

All times are in EDT time to prevent confusion due to time zone crossing. See the EMD24 flight status page for this flight to view local times or setup timezone preferences in your user account.

Time Position Orientation Groundspeed Altitude Reporting Facility
EDT Latitude Longitude Course Direction KTS MPH feet Rate Location/Type
Fri 06:53:41 PM 38.8281 -99.3544 286° West 118 136 6,800  Level Kansas City Center
Fri 06:54:43 PM 38.8386 -99.4044 285° West 120 138 8,700 1,694 Climbing Kansas City Center
Fri 06:55:45 PM 38.8483 -99.4489 286° West 126 145 10,300 1,355 Climbing Kansas City Center
Fri 06:56:47 PM 38.8581 -99.4906 287° West 123 142 11,500 1,344 Climbing Kansas City Center
Fri 06:57:00 PM 38.8650 -99.3949 293° West  Level FlightAware Approximate
Fri 06:57:50 PM 38.8661 -99.5339 283° West 125 144 13,100  Level Kansas City Center
Fri 06:58:00 PM 38.8787 -99.4600 284° West  Level FlightAware Approximate
Fri 06:59:00 PM 38.8926 -99.5251 286° West  Level FlightAware Approximate
Fri 06:59:48 PM 38.8886 -99.6292 287° West 138 159 15,600  Level Denver Center
Fri 07:00:50 PM 38.9008 -99.6761 289° West 145 167 16,100 293 Climbing Denver Center
Fri 07:01:51 PM 38.9117 -99.7267 285° West 174 200 16,200 -49 Climbing Denver Center
Fri 07:02:53 PM 38.9339 -99.8044 290° West 204 235 16,000 -96 Descending Denver Center
Fri 07:03:56 PM 38.9594 -99.8947 290° West 210 242 16,000  Level Denver Center
Fri 07:04:57 PM 38.9783 -99.9633 290° West 212 244 16,000  Level Denver Center
Fri 07:05:59 PM 38.9914 -100.0369 283° West 214 246 16,000  Level Denver Center
Fri 07:07:01 PM 39.0092 -100.1153 286° West 207 238 16,000  Level Denver Center
Fri 07:08:03 PM 39.0247 -100.1844 286° West 208 239 16,000  Level Denver Center
Fri 07:09:05 PM 39.0417 -100.2642 285° West 207 238 16,000  Level Denver Center
Fri 07:10:19 PM 39.0583 -100.3367 287° West 216 249 16,000  Level Denver Center
Fri 07:11:21 PM 39.0808 -100.4289 287° West 213 245 16,000  Level Denver Center
Fri 07:12:23 PM 39.0956 -100.4992 285° West 214 246 16,000  Level Denver Center
Fri 07:13:25 PM 39.1175 -100.5797 289° West 215 247 16,000  Level Denver Center
Fri 07:14:27 PM 39.1339 -100.6497 287° West 213 245 16,000  Level Denver Center
Fri 07:15:28 PM 39.1528 -100.7319 287° West 214 246 16,000  Level Denver Center
Fri 07:16:30 PM 39.1661 -100.7922 286° West 218 251 16,000  Level Denver Center
Fri 07:17:32 PM 39.1850 -100.8747 286° West 215 247 16,000  Level Denver Center
Fri 07:18:34 PM 39.2031 -100.9567 286° West 214 246 16,000  Level Denver Center
Fri 07:19:36 PM 39.2197 -101.0281 287° West 217 250 16,000 -242 Level Denver Center
Fri 07:20:38 PM 39.2386 -101.1122 286° West 218 251 15,500 -732 Descending Denver Center
Fri 07:21:39 PM 39.2528 -101.1872 284° West 223 257 14,500 -1,366 Descending Denver Center
Fri 07:22:41 PM 39.2794 -101.2811 290° West 242 278 12,700 -1,548 Descending Denver Center
Fri 07:23:43 PM 39.2981 -101.3644 286° West 249 287 11,300 -1,645 Descending Denver Center
Fri 07:24:45 PM 39.3194 -101.4608 286° West 250 288 9,300 -1,548 Descending Denver Center
Fri 07:25:47 PM 39.3411 -101.5397 290° West 247 284 8,100 -1,065 Descending Denver Center
Fri 07:26:49 PM 39.3633 -101.6214 289° West 239 275 7,100 -968 Descending Denver Center
Fri 07:28:00 PM 39.3667 -101.6833 288° West  Level FlightAware Approximate
Fri 07:35:00 PM 39.3706 -101.6990 288° West  Level Estimated
Fri 07:36:00 PM 39.3706 -101.6990 288° West  Level Estimated
Fri 07:37:00 PM 39.3706 -101.6990 288° West  Level Estimated

Login

Don't have an account? Register now (free) for customized features, flight alerts, and more!